Terminal Aerodrome Forecast
Issued by NWS Central Illinois

Home | Current Version | Previous Version | Text Only | Print | Product List | Glossary On
Versions: 1 2 3 4 5 6 7 8 9 10 11 12 13 14 15 16 17 18 19 20 21 22 23 24 25 26 27 28 29 30
000
FTUS43 KILX 230525
TAFSPI
TAF
KSPI 230525Z 2306/2406 26010KT 5SM -RA BKN025 OVC035
     FM230700 24012KT 4SM -SHSN OVC015
     FM231100 27011G21KT P6SM VCSH OVC008
     FM231300 29013G23KT P6SM OVC010
     FM231800 30015G24KT P6SM OVC020
     FM240100 30008KT P6SM BKN035=

USA.gov is the U.S. government's official web portal to all federal, state and local government web resources and services.